sensor_id;sensor_type;location;lat;lon;timestamp;P1;durP1;ratioP1;P2;durP2;ratioP2
58874;SDS011;44652;49.040;12.126;2023-06-10T00:01:43;7.53;;;6.20;;
58874;SDS011;44652;49.040;12.126;2023-06-10T00:04:14;8.07;;;6.63;;
58874;SDS011;44652;49.040;12.126;2023-06-10T00:06:45;10.18;;;7.07;;
58874;SDS011;44652;49.040;12.126;2023-06-10T00:09:14;8.93;;;6.03;;
58874;SDS011;44652;49.040;12.126;2023-06-10T00:11:42;8.77;;;6.90;;
58874;SDS011;44652;49.040;12.126;2023-06-10T00:14:09;8.52;;;6.65;;
58874;SDS011;44652;49.040;12.126;2023-06-10T00:16:35;8.50;;;6.47;;
58874;SDS011;44652;49.040;12.126;2023-06-10T00:19:03;8.77;;;7.10;;
58874;SDS011;44652;49.040;12.126;2023-06-10T00:21:31;7.67;;;6.70;;
58874;SDS011;44652;49.040;12.126;2023-06-10T00:24:04;7.72;;;6.40;;
58874;SDS011;44652;49.040;12.126;2023-06-10T00:26:31;8.80;;;6.95;;
58874;SDS011;44652;49.040;12.126;2023-06-10T00:28:59;8.35;;;6.50;;
58874;SDS011;44652;49.040;12.126;2023-06-10T00:31:26;8.80;;;6.80;;
58874;SDS011;44652;49.040;12.126;2023-06-10T00:33:53;7.40;;;6.53;;
58874;SDS011;44652;49.040;12.126;2023-06-10T00:36:20;7.90;;;6.97;;
58874;SDS011;44652;49.040;12.126;2023-06-10T00:38:47;8.95;;;6.40;;
58874;SDS011;44652;49.040;12.126;2023-06-10T00:41:14;10.38;;;6.50;;
58874;SDS011;44652;49.040;12.126;2023-06-10T00:43:40;8.30;;;6.65;;
58874;SDS011;44652;49.040;12.126;2023-06-10T00:46:07;8.88;;;7.50;;
58874;SDS011;44652;49.040;12.126;2023-06-10T00:48:34;7.97;;;6.90;;
58874;SDS011;44652;49.040;12.126;2023-06-10T00:51:01;8.30;;;6.95;;
58874;SDS011;44652;49.040;12.126;2023-06-10T00:53:27;7.40;;;6.63;;
58874;SDS011;44652;49.040;12.126;2023-06-10T00:55:54;11.02;;;7.57;;
58874;SDS011;44652;49.040;12.126;2023-06-10T00:58:22;8.63;;;7.07;;
58874;SDS011;44652;49.040;12.126;2023-06-10T01:00:50;8.88;;;7.28;;
58874;SDS011;44652;49.040;12.126;2023-06-10T01:03:18;8.80;;;7.70;;
58874;SDS011;44652;49.040;12.126;2023-06-10T01:11:00;7.72;;;6.93;;
58874;SDS011;44652;49.040;12.126;2023-06-10T01:13:30;8.25;;;7.35;;
58874;SDS011;44652;49.040;12.126;2023-06-10T01:15:58;11.80;;;7.82;;
58874;SDS011;44652;49.040;12.126;2023-06-10T01:18:31;8.87;;;6.90;;
58874;SDS011;44652;49.040;12.126;2023-06-10T01:20:58;8.38;;;7.00;;
58874;SDS011;44652;49.040;12.126;2023-06-10T01:23:25;7.63;;;6.78;;
58874;SDS011;44652;49.040;12.126;2023-06-10T01:28:34;9.57;;;7.72;;
58874;SDS011;44652;49.040;12.126;2023-06-10T01:33:35;7.88;;;6.78;;
58874;SDS011;44652;49.040;12.126;2023-06-10T01:36:05;8.50;;;7.57;;
58874;SDS011;44652;49.040;12.126;2023-06-10T01:38:39;10.52;;;7.18;;
58874;SDS011;44652;49.040;12.126;2023-06-10T01:41:10;8.35;;;6.95;;
58874;SDS011;44652;49.040;12.126;2023-06-10T01:43:39;9.48;;;7.60;;
58874;SDS011;44652;49.040;12.126;2023-06-10T01:46:06;8.85;;;7.40;;
58874;SDS011;44652;49.040;12.126;2023-06-10T01:48:33;9.32;;;7.80;;
58874;SDS011;44652;49.040;12.126;2023-06-10T01:51:00;8.43;;;6.70;;
58874;SDS011;44652;49.040;12.126;2023-06-10T01:53:27;9.10;;;7.80;;
58874;SDS011;44652;49.040;12.126;2023-06-10T01:55:54;9.68;;;7.55;;
58874;SDS011;44652;49.040;12.126;2023-06-10T01:58:20;9.10;;;7.03;;
58874;SDS011;44652;49.040;12.126;2023-06-10T02:00:47;9.05;;;7.60;;
58874;SDS011;44652;49.040;12.126;2023-06-10T02:03:14;11.20;;;7.72;;
58874;SDS011;44652;49.040;12.126;2023-06-10T02:05:41;9.02;;;7.88;;
58874;SDS011;44652;49.040;12.126;2023-06-10T02:08:08;8.93;;;8.02;;
58874;SDS011;44652;49.040;12.126;2023-06-10T02:10:34;8.90;;;7.95;;
58874;SDS011;44652;49.040;12.126;2023-06-10T02:13:02;12.35;;;8.07;;
58874;SDS011;44652;49.040;12.126;2023-06-10T02:15:28;8.70;;;7.57;;
58874;SDS011;44652;49.040;12.126;2023-06-10T02:17:55;10.15;;;7.78;;
58874;SDS011;44652;49.040;12.126;2023-06-10T02:20:22;10.20;;;8.07;;
58874;SDS011;44652;49.040;12.126;2023-06-10T02:22:49;8.90;;;7.95;;
58874;SDS011;44652;49.040;12.126;2023-06-10T02:25:15;11.82;;;8.38;;
58874;SDS011;44652;49.040;12.126;2023-06-10T02:27:42;7.82;;;6.93;;
58874;SDS011;44652;49.040;12.126;2023-06-10T02:30:09;9.05;;;7.85;;
58874;SDS011;44652;49.040;12.126;2023-06-10T02:32:36;8.68;;;7.50;;
58874;SDS011;44652;49.040;12.126;2023-06-10T02:35:03;9.45;;;7.57;;
58874;SDS011;44652;49.040;12.126;2023-06-10T02:37:31;9.00;;;7.70;;
58874;SDS011;44652;49.040;12.126;2023-06-10T02:39:59;10.53;;;7.97;;
58874;SDS011;44652;49.040;12.126;2023-06-10T02:42:26;10.20;;;7.60;;
58874;SDS011;44652;49.040;12.126;2023-06-10T02:44:53;10.32;;;8.18;;
58874;SDS011;44652;49.040;12.126;2023-06-10T02:47:34;9.18;;;8.20;;
58874;SDS011;44652;49.040;12.126;2023-06-10T02:50:01;9.77;;;8.18;;
58874;SDS011;44652;49.040;12.126;2023-06-10T02:52:30;8.60;;;7.68;;
58874;SDS011;44652;49.040;12.126;2023-06-10T02:54:58;9.73;;;8.17;;
58874;SDS011;44652;49.040;12.126;2023-06-10T02:57:25;9.55;;;8.52;;
58874;SDS011;44652;49.040;12.126;2023-06-10T02:59:52;9.77;;;8.02;;
58874;SDS011;44652;49.040;12.126;2023-06-10T03:02:21;12.13;;;8.80;;
58874;SDS011;44652;49.040;12.126;2023-06-10T03:04:50;9.95;;;8.32;;
58874;SDS011;44652;49.040;12.126;2023-06-10T03:07:18;10.77;;;8.65;;
58874;SDS011;44652;49.040;12.126;2023-06-10T03:09:49;10.10;;;9.05;;
58874;SDS011;44652;49.040;12.126;2023-06-10T03:12:16;9.27;;;8.00;;
58874;SDS011;44652;49.040;12.126;2023-06-10T03:14:46;10.75;;;8.68;;
58874;SDS011;44652;49.040;12.126;2023-06-10T03:17:13;10.43;;;9.32;;
58874;SDS011;44652;49.040;12.126;2023-06-10T03:19:42;9.75;;;8.75;;
58874;SDS011;44652;49.040;12.126;2023-06-10T03:22:12;9.20;;;8.02;;
58874;SDS011;44652;49.040;12.126;2023-06-10T03:24:51;10.35;;;8.50;;
58874;SDS011;44652;49.040;12.126;2023-06-10T03:27:18;11.00;;;8.68;;
58874;SDS011;44652;49.040;12.126;2023-06-10T03:29:49;9.25;;;7.93;;
58874;SDS011;44652;49.040;12.126;2023-06-10T03:32:16;10.50;;;7.85;;
58874;SDS011;44652;49.040;12.126;2023-06-10T03:34:43;10.85;;;8.43;;
58874;SDS011;44652;49.040;12.126;2023-06-10T03:37:11;12.40;;;8.55;;
58874;SDS011;44652;49.040;12.126;2023-06-10T03:39:39;10.43;;;8.10;;
58874;SDS011;44652;49.040;12.126;2023-06-10T03:42:06;11.32;;;8.32;;
58874;SDS011;44652;49.040;12.126;2023-06-10T03:44:33;15.43;;;8.68;;
58874;SDS011;44652;49.040;12.126;2023-06-10T03:47:00;15.43;;;9.13;;
58874;SDS011;44652;49.040;12.126;2023-06-10T03:49:26;8.93;;;8.02;;
58874;SDS011;44652;49.040;12.126;2023-06-10T03:51:59;9.18;;;8.18;;
58874;SDS011;44652;49.040;12.126;2023-06-10T03:54:26;10.00;;;8.38;;
58874;SDS011;44652;49.040;12.126;2023-06-10T03:56:53;10.15;;;8.10;;
58874;SDS011;44652;49.040;12.126;2023-06-10T03:59:20;10.70;;;8.25;;
58874;SDS011;44652;49.040;12.126;2023-06-10T04:01:47;10.10;;;7.90;;
58874;SDS011;44652;49.040;12.126;2023-06-10T04:04:14;9.30;;;7.57;;
58874;SDS011;44652;49.040;12.126;2023-06-10T04:06:43;10.60;;;8.82;;
58874;SDS011;44652;49.040;12.126;2023-06-10T04:09:11;10.43;;;8.57;;
58874;SDS011;44652;49.040;12.126;2023-06-10T04:11:38;13.02;;;8.93;;
58874;SDS011;44652;49.040;12.126;2023-06-10T04:14:05;11.57;;;9.13;;
58874;SDS011;44652;49.040;12.126;2023-06-10T04:16:33;11.35;;;8.45;;
58874;SDS011;44652;49.040;12.126;2023-06-10T04:19:00;10.43;;;9.32;;
58874;SDS011;44652;49.040;12.126;2023-06-10T04:21:27;10.27;;;9.00;;
58874;SDS011;44652;49.040;12.126;2023-06-10T04:23:54;10.48;;;9.38;;
58874;SDS011;44652;49.040;12.126;2023-06-10T04:26:21;16.83;;;9.13;;
58874;SDS011;44652;49.040;12.126;2023-06-10T04:28:51;12.15;;;10.00;;
58874;SDS011;44652;49.040;12.126;2023-06-10T04:31:18;11.10;;;8.60;;
58874;SDS011;44652;49.040;12.126;2023-06-10T04:33:46;11.20;;;9.60;;
58874;SDS011;44652;49.040;12.126;2023-06-10T04:36:13;12.88;;;10.07;;
58874;SDS011;44652;49.040;12.126;2023-06-10T04:38:41;11.50;;;9.33;;
58874;SDS011;44652;49.040;12.126;2023-06-10T04:41:08;11.57;;;9.67;;
58874;SDS011;44652;49.040;12.126;2023-06-10T04:43:36;12.60;;;10.30;;
58874;SDS011;44652;49.040;12.126;2023-06-10T04:46:03;11.07;;;9.77;;
58874;SDS011;44652;49.040;12.126;2023-06-10T04:48:34;11.93;;;9.55;;
58874;SDS011;44652;49.040;12.126;2023-06-10T04:51:02;13.13;;;10.02;;
58874;SDS011;44652;49.040;12.126;2023-06-10T04:53:29;11.95;;;9.73;;
58874;SDS011;44652;49.040;12.126;2023-06-10T04:55:56;11.35;;;10.07;;
58874;SDS011;44652;49.040;12.126;2023-06-10T04:58:23;12.50;;;9.82;;
58874;SDS011;44652;49.040;12.126;2023-06-10T05:00:50;11.02;;;9.70;;
58874;SDS011;44652;49.040;12.126;2023-06-10T05:03:17;11.38;;;9.20;;
58874;SDS011;44652;49.040;12.126;2023-06-10T05:05:44;11.60;;;9.40;;
58874;SDS011;44652;49.040;12.126;2023-06-10T05:08:11;11.00;;;9.43;;
58874;SDS011;44652;49.040;12.126;2023-06-10T05:10:37;12.15;;;9.57;;
58874;SDS011;44652;49.040;12.126;2023-06-10T05:13:04;11.50;;;10.30;;
58874;SDS011;44652;49.040;12.126;2023-06-10T05:15:31;10.77;;;9.10;;
58874;SDS011;44652;49.040;12.126;2023-06-10T05:17:57;12.98;;;9.05;;
58874;SDS011;44652;49.040;12.126;2023-06-10T05:20:25;11.05;;;9.45;;
58874;SDS011;44652;49.040;12.126;2023-06-10T05:22:53;9.30;;;8.38;;
58874;SDS011;44652;49.040;12.126;2023-06-10T05:25:20;11.02;;;8.93;;
58874;SDS011;44652;49.040;12.126;2023-06-10T05:27:47;11.75;;;8.00;;
58874;SDS011;44652;49.040;12.126;2023-06-10T05:30:14;10.18;;;8.38;;
58874;SDS011;44652;49.040;12.126;2023-06-10T05:32:41;9.57;;;8.38;;
58874;SDS011;44652;49.040;12.126;2023-06-10T05:35:08;10.57;;;8.18;;
58874;SDS011;44652;49.040;12.126;2023-06-10T05:37:35;9.10;;;8.05;;
58874;SDS011;44652;49.040;12.126;2023-06-10T05:40:03;10.57;;;9.27;;
58874;SDS011;44652;49.040;12.126;2023-06-10T05:42:30;10.15;;;7.88;;
58874;SDS011;44652;49.040;12.126;2023-06-10T05:44:57;9.80;;;8.60;;
58874;SDS011;44652;49.040;12.126;2023-06-10T05:47:24;10.02;;;8.52;;
58874;SDS011;44652;49.040;12.126;2023-06-10T05:49:51;9.70;;;8.50;;
58874;SDS011;44652;49.040;12.126;2023-06-10T05:52:18;9.65;;;8.40;;
58874;SDS011;44652;49.040;12.126;2023-06-10T05:54:45;9.55;;;8.55;;
58874;SDS011;44652;49.040;12.126;2023-06-10T05:57:11;10.13;;;8.50;;
58874;SDS011;44652;49.040;12.126;2023-06-10T05:59:38;11.15;;;7.90;;
58874;SDS011;44652;49.040;12.126;2023-06-10T06:02:08;9.85;;;8.10;;
58874;SDS011;44652;49.040;12.126;2023-06-10T06:04:35;9.93;;;7.88;;
58874;SDS011;44652;49.040;12.126;2023-06-10T06:07:01;9.07;;;7.22;;
58874;SDS011;44652;49.040;12.126;2023-06-10T06:09:28;8.48;;;7.57;;
58874;SDS011;44652;49.040;12.126;2023-06-10T06:11:55;8.93;;;7.85;;
58874;SDS011;44652;49.040;12.126;2023-06-10T06:14:22;9.00;;;8.02;;
58874;SDS011;44652;49.040;12.126;2023-06-10T06:16:48;10.02;;;8.55;;
